Time;durP1;ratioP1;P1;durP2;ratioP2;P2;SDS_P1;SDS_P2;PMS_P1;PMS_P2;Temp;Humidity;BMP_temperature;BMP_pressure;BME280_temperature;BME280_humidity;BME280_pressure;Samples;Min_cycle;Max_cycle;Signal;HPM_P1;HPM_P2
2022/10/10 00:01:36;;;;;;;5.03;3.40;;;8.10;99.90;;;-141.84;71.41;18749.03;5094197;28;20211;-63
2022/10/10 00:04:05;;;;;;;7.90;3.30;;;8.00;99.90;;;-141.84;71.57;18736.84;5093066;28;20228;-64
2022/10/10 00:06:34;;;;;;;5.50;3.37;;;8.00;99.90;;;-141.84;71.80;18730.75;5092759;28;20734;-63
2022/10/10 00:09:04;;;;;;;7.60;3.57;;;7.90;99.90;;;-141.84;71.95;18714.50;5092874;28;20226;-65
2022/10/10 00:11:35;;;;;;;7.13;3.77;;;7.90;99.90;;;-141.84;72.17;18716.53;5092995;28;20230;-64
2022/10/10 00:14:04;;;;;;;5.53;4.00;;;7.80;99.90;;;-141.84;71.92;18696.19;5092941;28;20592;-64
2022/10/10 00:16:32;;;;;;;4.70;3.10;;;7.80;99.90;;;-141.84;71.87;18724.66;5093168;28;20706;-64
2022/10/10 00:19:00;;;;;;;3.83;3.43;;;7.80;99.90;;;-141.84;71.73;18736.84;5092849;28;20228;-65
2022/10/10 00:21:29;;;;;;;5.03;3.73;;;7.80;99.90;;;-141.84;71.30;18744.97;5092760;28;20596;-64
2022/10/10 00:23:57;;;;;;;4.30;3.10;;;7.80;99.90;;;-141.84;71.35;18722.63;5092717;28;20226;-64
2022/10/10 00:26:25;;;;;;;4.50;3.20;;;7.80;99.90;;;-141.84;71.46;18724.66;5092847;28;20268;-64
2022/10/10 00:28:54;;;;;;;5.90;3.53;;;7.80;99.90;;;-141.84;71.79;18708.41;5092690;28;20200;-65
2022/10/10 00:31:22;;;;;;;4.67;3.53;;;7.70;99.90;;;-141.84;72.22;18702.28;5092951;28;20210;-64
2022/10/10 00:33:51;;;;;;;5.43;3.40;;;7.70;99.90;;;-141.84;71.70;18698.22;5092638;28;20596;-64
2022/10/10 00:36:20;;;;;;;5.50;3.23;;;7.70;99.90;;;-141.84;71.85;18700.25;5092400;28;20586;-64
2022/10/10 00:38:48;;;;;;;5.40;3.30;;;7.70;99.90;;;-141.84;71.91;18702.28;5092255;28;20318;-65
2022/10/10 00:41:17;;;;;;;6.13;3.90;;;7.70;99.90;;;-141.84;72.04;18661.66;5092000;28;20227;-64
2022/10/10 00:44:04;;;;;;;4.87;3.57;;;7.70;99.90;;;-141.84;71.84;18704.31;5092986;28;20192;-63
2022/10/10 00:46:32;;;;;;;7.47;4.00;;;7.70;99.90;;;-141.84;71.97;18716.53;5092464;28;20672;-63
2022/10/10 00:49:03;;;;;;;6.27;4.00;;;7.60;99.90;;;-141.84;72.47;18688.06;5092247;28;20216;-64
2022/10/10 00:51:32;;;;;;;5.73;3.63;;;7.50;99.90;;;-141.84;71.65;18712.47;5092042;28;20420;-63
2022/10/10 00:54:05;;;;;;;6.00;3.13;;;7.60;99.90;;;-141.84;72.41;18696.19;5092114;28;20219;-63
2022/10/10 00:56:39;;;;;;;6.83;3.47;;;7.50;99.90;;;-141.84;72.85;18659.63;5091650;28;20643;-63
2022/10/10 00:59:11;;;;;;;6.27;3.17;;;7.50;99.90;;;-141.84;72.91;18659.63;5092033;28;20200;-65
2022/10/10 01:01:41;;;;;;;6.87;3.50;;;7.50;99.90;;;-141.84;72.32;18667.75;5092547;28;20204;-63
2022/10/10 01:04:33;;;;;;;5.40;3.57;;;7.50;99.90;;;-141.84;72.64;18647.44;5091848;28;20231;-65
2022/10/10 01:07:05;;;;;;;5.27;3.73;;;7.50;99.90;;;-141.84;72.80;18657.59;5091734;28;20239;-64
2022/10/10 01:09:36;;;;;;;5.10;3.50;;;7.50;99.90;;;-141.84;73.01;18637.28;5091728;28;20231;-65
2022/10/10 01:12:20;;;;;;;6.97;3.70;;;7.40;99.90;;;-141.84;73.22;18665.72;5091943;28;20227;-63
2022/10/10 01:15:00;;;;;;;5.67;3.27;;;7.40;99.90;;;-141.84;73.39;18659.63;5091704;28;20246;-64
2022/10/10 01:17:34;;;;;;;4.37;3.50;;;7.30;99.90;;;-141.84;73.18;18635.25;5090548;28;20223;-64
2022/10/10 01:20:40;;;;;;;5.70;3.20;;;7.40;99.90;;;-141.84;73.36;18663.69;5091334;28;20707;-64
2022/10/10 01:23:38;;;;;;;6.13;3.70;;;7.30;99.90;;;-141.84;73.36;18675.88;5087842;28;20200;-64
2022/10/10 01:26:36;;;;;;;8.47;3.80;;;7.30;99.90;;;-141.84;73.69;18616.97;5091329;28;20215;-63
2022/10/10 01:29:18;;;;;;;4.20;3.73;;;7.30;99.90;;;-141.84;73.56;18616.97;5091086;28;20656;-65
2022/10/10 01:31:51;;;;;;;5.97;3.80;;;7.30;99.90;;;-141.84;73.29;18655.56;5091924;28;20205;-64
2022/10/10 01:34:28;;;;;;;7.10;4.20;;;7.30;99.90;;;-141.84;73.64;18616.97;5091871;28;20246;-64
2022/10/10 01:37:03;;;;;;;6.37;3.63;;;7.30;99.90;;;-141.84;73.50;18616.97;5091210;28;20242;-63
2022/10/10 01:39:42;;;;;;;5.87;3.60;;;7.30;99.90;;;-141.84;73.70;18631.19;5091064;28;20258;-63
2022/10/10 01:42:22;;;;;;;8.07;4.13;;;7.30;99.90;;;-141.84;73.78;18610.88;5091375;28;20235;-64
2022/10/10 01:44:53;;;;;;;4.77;3.90;;;7.20;99.90;;;-141.84;74.13;18610.88;5091281;28;20227;-64
2022/10/10 01:47:22;;;;;;;5.67;4.13;;;7.20;99.90;;;-141.84;74.21;18604.78;5090811;28;20223;-64
2022/10/10 01:49:55;;;;;;;6.43;3.43;;;7.20;99.90;;;-141.84;73.94;18578.38;5091086;28;20196;-64
2022/10/10 01:52:43;;;;;;;5.87;3.67;;;7.20;99.90;;;-141.84;73.59;18629.16;5091625;28;20210;-64
2022/10/10 01:55:33;;;;;;;5.43;3.77;;;7.30;99.90;;;-141.84;73.59;18608.84;5090887;28;20261;-64
2022/10/10 01:58:24;;;;;;;5.67;3.73;;;7.20;99.90;;;-141.84;74.40;18596.66;5090833;28;20227;-64
2022/10/10 02:01:07;;;;;;;6.40;3.73;;;7.20;99.90;;;-141.84;74.54;18556.00;5090843;28;20220;-64
2022/10/10 02:03:43;;;;;;;5.63;3.60;;;7.20;99.90;;;-141.84;74.82;18574.28;5090702;28;20223;-66
2022/10/10 02:06:20;;;;;;;5.33;3.53;;;7.10;99.90;;;-141.84;74.64;18590.56;5091246;28;20231;-63
2022/10/10 02:08:56;;;;;;;4.37;3.67;;;7.40;99.90;;;-141.84;75.18;18558.03;5090660;28;20215;-64
2022/10/10 02:11:29;;;;;;;4.40;3.33;;;7.00;99.90;;;-141.84;75.07;18533.66;5091061;28;20219;-64
2022/10/10 02:14:05;;;;;;;5.60;3.33;;;7.00;99.90;;;-141.84;75.23;18592.59;5090944;28;20195;-64
2022/10/10 02:16:41;;;;;;;4.57;3.43;;;7.00;99.90;;;-141.84;75.57;18560.06;5091543;28;20188;-64
2022/10/10 02:19:14;;;;;;;5.70;3.83;;;6.90;99.90;;;-141.84;75.77;18539.75;5090435;28;20744;-64
2022/10/10 02:21:43;;;;;;;5.07;3.70;;;7.10;99.90;;;-141.84;75.47;18529.59;5090918;28;20223;-64
2022/10/10 02:24:13;;;;;;;4.27;3.60;;;7.00;99.90;;;-141.84;74.64;18566.16;5090332;28;20220;-63
2022/10/10 02:26:52;;;;;;;6.57;3.80;;;7.10;99.90;;;-141.84;74.98;18590.56;5090676;28;20269;-64
2022/10/10 02:29:26;;;;;;;5.27;4.23;;;7.10;99.90;;;-141.84;74.89;18551.94;5089865;28;20257;-64
2022/10/10 02:32:05;;;;;;;6.17;3.60;;;7.10;99.90;;;-141.84;74.96;18566.16;5089771;28;20206;-65
2022/10/10 02:34:38;;;;;;;5.43;3.80;;;7.20;99.90;;;-141.84;74.17;18568.19;5091185;28;20212;-63
2022/10/10 02:37:12;;;;;;;6.67;3.63;;;7.20;99.90;;;-141.84;74.36;18566.16;5090453;28;20231;-64
2022/10/10 02:39:45;;;;;;;5.83;3.70;;;7.20;99.90;;;-141.84;74.87;18576.31;5090161;28;20238;-64
2022/10/10 02:42:17;;;;;;;4.47;3.30;;;7.20;99.90;;;-141.84;75.24;18553.97;5090696;28;20254;-63
2022/10/10 02:44:47;;;;;;;6.33;4.37;;;7.20;99.90;;;-141.84;74.90;18590.56;5090392;28;20215;-64
2022/10/10 02:47:17;;;;;;;5.27;3.50;;;7.20;99.90;;;-141.84;73.92;18592.59;5090450;28;20227;-63
2022/10/10 02:49:45;;;;;;;5.27;3.93;;;7.20;99.90;;;-141.84;73.41;18596.66;5091082;28;20180;-63
2022/10/10 02:52:16;;;;;;;7.07;4.07;;;7.30;99.90;;;-141.84;74.02;18598.69;5090192;28;20232;-63
2022/10/10 02:54:44;;;;;;;4.97;3.90;;;7.30;99.90;;;-141.84;74.45;18586.50;5088703;28;20592;-62
2022/10/10 02:57:12;;;;;;;5.57;4.10;;;7.20;99.90;;;-141.84;75.34;18588.53;5090485;28;20234;-65
2022/10/10 02:59:41;;;;;;;6.57;3.53;;;7.20;99.90;;;-141.84;75.70;18543.81;5093275;28;20243;-64
2022/10/10 03:02:09;;;;;;;6.80;3.43;;;7.10;99.90;;;-141.84;76.19;18521.47;5109884;28;20203;-64
2022/10/10 03:04:38;;;;;;;4.00;3.47;;;7.00;99.90;;;-141.84;76.50;18594.63;5115075;28;20207;-64
2022/10/10 03:07:06;;;;;;;4.43;3.33;;;7.00;99.90;;;-141.84;76.07;18505.22;5114479;28;20227;-64
2022/10/10 03:09:35;;;;;;;5.27;3.73;;;7.00;99.90;;;-141.84;76.12;18537.72;5114247;28;20226;-63
2022/10/10 03:12:03;;;;;;;5.93;3.97;;;7.00;99.90;;;-141.84;76.08;18543.81;5114565;28;20223;-64
2022/10/10 03:14:31;;;;;;;6.17;4.27;;;7.00;99.90;;;-141.84;75.74;18517.41;5114355;28;20219;-64
2022/10/10 03:16:59;;;;;;;8.33;4.30;;;7.00;99.90;;;-141.84;75.79;18531.63;5114356;28;20804;-64
2022/10/10 03:19:27;;;;;;;5.73;4.00;;;7.00;99.90;;;-141.84;75.72;18529.59;5115012;28;20214;-63
2022/10/10 03:21:57;;;;;;;6.63;3.70;;;7.00;99.90;;;-141.84;76.25;18545.84;5113919;28;20235;-64
2022/10/10 03:24:25;;;;;;;4.23;3.80;;;7.00;99.90;;;-141.84;76.26;18562.09;5113147;28;20231;-64
2022/10/10 03:26:53;;;;;;;6.37;4.03;;;7.00;99.90;;;-141.84;76.15;18509.28;5114343;28;20231;-64
2022/10/10 03:29:21;;;;;;;10.33;4.67;;;7.00;99.90;;;-141.84;75.97;18527.56;5113816;28;20663;-65
2022/10/10 03:31:49;;;;;;;6.20;4.13;;;7.00;99.90;;;-141.84;75.91;18523.50;5114307;28;20211;-64
2022/10/10 03:34:18;;;;;;;7.73;4.57;;;7.00;99.90;;;-141.84;75.86;18517.41;5114848;28;20208;-64
2022/10/10 03:36:46;;;;;;;5.70;4.10;;;7.00;99.90;;;-141.84;75.11;18543.81;5113890;28;20230;-63
2022/10/10 03:39:15;;;;;;;5.90;3.90;;;7.10;99.90;;;-141.84;74.71;18560.06;5113602;28;20223;-64
2022/10/10 03:41:43;;;;;;;6.00;4.10;;;7.20;99.90;;;-141.84;74.96;18545.84;5114383;28;20607;-64
2022/10/10 03:44:11;;;;;;;6.17;4.00;;;7.30;99.90;;;-141.84;74.73;18562.09;5114145;28;20226;-65
2022/10/10 03:46:39;;;;;;;6.67;3.80;;;7.30;99.90;;;-141.84;74.82;18547.88;5114795;28;20677;-64
2022/10/10 03:49:07;;;;;;;6.43;4.10;;;7.40;99.90;;;-141.84;74.09;18574.28;5113510;28;20245;-63
2022/10/10 03:51:35;;;;;;;7.90;4.57;;;7.40;99.90;;;-141.84;74.13;18539.75;5113487;28;20737;-63
2022/10/10 03:54:04;;;;;;;7.40;4.03;;;7.50;99.90;;;-141.84;74.13;18590.56;5113292;28;20656;-65
2022/10/10 03:56:33;;;;;;;8.17;4.50;;;7.50;99.90;;;-141.84;73.91;18549.91;5113779;28;20215;-64
2022/10/10 03:59:02;;;;;;;5.60;3.80;;;7.50;99.90;;;-141.84;73.94;18584.47;5113577;27;20508;-63
2022/10/10 04:01:31;;;;;;;7.10;4.20;;;7.50;99.90;;;-141.84;73.59;18574.28;5102786;28;20294;-64
2022/10/10 04:03:59;;;;;;;5.87;3.87;;;7.50;99.90;;;-141.84;73.68;18610.88;5092793;28;20219;-63
2022/10/10 04:06:28;;;;;;;5.63;4.03;;;7.60;99.90;;;-141.84;73.20;18619.00;5092881;28;20227;-64
2022/10/10 04:08:56;;;;;;;5.63;3.77;;;7.70;99.90;;;-141.84;73.52;18604.78;5092423;28;20216;-63
2022/10/10 04:11:24;;;;;;;5.73;4.47;;;7.60;99.90;;;-141.84;73.91;18564.13;5093135;28;20262;-64
2022/10/10 04:13:53;;;;;;;4.73;3.97;;;7.50;99.90;;;-141.84;74.10;18562.09;5092956;28;20207;-64
2022/10/10 04:16:21;;;;;;;6.57;4.43;;;7.50;99.90;;;-141.84;74.50;18582.44;5093818;28;20203;-64
2022/10/10 04:18:49;;;;;;;6.73;4.23;;;7.40;99.90;;;-141.84;74.32;18576.31;5092773;28;20709;-64
2022/10/10 04:21:17;;;;;;;7.33;4.40;;;7.40;99.90;;;-141.84;74.33;18592.59;5092601;28;20235;-64
2022/10/10 04:23:45;;;;;;;6.97;4.30;;;7.40;99.90;;;-141.84;74.86;18549.91;5092358;28;20224;-65
2022/10/10 04:26:13;;;;;;;4.90;3.90;;;7.30;99.90;;;-141.84;75.08;18529.59;5092142;28;20592;-63
2022/10/10 04:28:41;;;;;;;6.13;4.17;;;7.30;99.90;;;-141.84;75.08;18572.25;5093318;28;20195;-63
2022/10/10 04:31:11;;;;;;;6.53;4.47;;;7.30;99.90;;;-141.84;75.20;18558.03;5092155;28;20235;-64
2022/10/10 04:33:39;;;;;;;7.17;4.30;;;7.30;99.90;;;-141.84;75.33;18560.06;5092720;28;20232;-65
2022/10/10 04:36:08;;;;;;;7.27;4.33;;;7.30;99.90;;;-141.84;74.94;18525.53;5092496;28;20227;-64
2022/10/10 04:38:36;;;;;;;5.67;4.27;;;7.20;99.90;;;-141.84;75.52;18517.41;5092391;28;20277;-65
2022/10/10 04:41:04;;;;;;;6.33;4.47;;;7.20;99.90;;;-141.84;75.45;18545.84;5092477;28;20235;-63
2022/10/10 04:43:33;;;;;;;6.83;4.90;;;7.20;99.90;;;-141.84;75.60;18507.25;5092641;28;20694;-64
2022/10/10 04:46:01;;;;;;;5.97;4.03;;;7.20;99.90;;;-141.84;75.27;18537.72;5092162;28;20345;-63
2022/10/10 04:48:30;;;;;;;4.80;4.30;;;7.20;99.90;;;-141.84;74.98;18529.59;5092308;28;20236;-63
2022/10/10 04:50:59;;;;;;;6.13;3.93;;;7.20;99.90;;;-141.84;74.78;18558.03;5092308;28;20216;-63
2022/10/10 04:53:27;;;;;;;5.90;3.87;;;7.20;99.90;;;-141.84;74.31;18592.59;5092221;28;20227;-64
2022/10/10 04:55:55;;;;;;;7.23;3.73;;;7.20;99.90;;;-141.84;74.23;18566.16;5092117;28;20204;-63
2022/10/10 04:58:23;;;;;;;4.80;3.87;;;7.30;99.90;;;-141.84;74.83;18539.75;5092388;28;20196;-64
2022/10/10 05:00:52;;;;;;;6.03;3.77;;;7.20;99.90;;;-141.84;75.35;18529.59;5091865;28;20239;-63
2022/10/10 05:03:21;;;;;;;5.20;4.00;;;7.20;99.90;;;-141.84;75.54;18529.59;5091811;28;20230;-63
2022/10/10 05:05:50;;;;;;;5.70;3.77;;;7.20;99.90;;;-141.84;75.55;18549.91;5091740;28;20628;-65
2022/10/10 05:08:19;;;;;;;4.10;3.67;;;7.10;99.90;;;-141.84;74.47;18570.22;5089861;28;20223;-63
2022/10/10 05:10:47;;;;;;;6.03;4.23;;;7.20;99.90;;;-141.84;74.10;18529.59;5112428;28;20195;-64
2022/10/10 05:13:16;;;;;;;7.30;3.70;;;7.20;99.90;;;-141.84;74.63;18553.97;5112354;28;20223;-64
2022/10/10 05:15:44;;;;;;;5.47;3.97;;;7.20;99.90;;;-141.84;75.35;18519.44;5111781;28;20751;-65
2022/10/10 05:18:12;;;;;;;4.80;3.33;;;7.20;99.90;;;-141.84;75.68;18507.25;5111951;28;20227;-63
2022/10/10 05:20:42;;;;;;;8.83;4.20;;;7.20;99.90;;;-141.84;75.96;18505.22;5111462;28;20223;-63
2022/10/10 05:23:12;;;;;;;8.80;4.30;;;7.10;99.90;;;-141.84;76.19;18525.53;5112199;28;20219;-64
2022/10/10 05:25:43;;;;;;;6.70;3.90;;;7.10;99.90;;;-141.84;76.04;18505.22;5112486;28;20203;-62
2022/10/10 05:28:11;;;;;;;5.17;3.90;;;7.10;99.90;;;-141.84;76.21;18519.44;5111693;28;20223;-64
2022/10/10 05:30:39;;;;;;;5.40;4.13;;;7.10;99.90;;;-141.84;76.11;18519.44;5111543;27;20227;-64
2022/10/10 05:33:07;;;;;;;6.80;4.00;;;7.10;99.90;;;-141.84;75.58;18505.22;5111876;28;20234;-63
2022/10/10 05:35:36;;;;;;;4.20;3.80;;;7.20;99.90;;;-141.84;74.49;18549.91;5111522;28;20696;-63
2022/10/10 05:38:04;;;;;;;6.40;4.10;;;7.20;99.90;;;-141.84;75.13;18509.28;5112068;28;20213;-63
2022/10/10 05:40:33;;;;;;;7.43;4.33;;;7.20;99.90;;;-141.84;75.67;18537.72;5112020;28;20199;-64
2022/10/10 05:43:01;;;;;;;5.37;4.40;;;7.20;99.90;;;-141.84;75.42;18541.78;5111293;28;20227;-63
2022/10/10 05:45:29;;;;;;;6.67;4.27;;;7.20;99.90;;;-141.84;75.45;18505.22;5111611;28;20227;-63
2022/10/10 05:47:57;;;;;;;7.03;4.17;;;7.20;99.90;;;-141.84;75.48;18519.44;5111451;28;20625;-63
2022/10/10 05:50:33;;;;;;;7.00;5.00;;;7.30;99.90;;;-141.84;75.55;18497.09;5111650;28;20238;-64
2022/10/10 05:53:01;;;;;;;6.07;4.90;;;7.30;99.90;;;-141.84;75.33;18519.44;5111611;28;20555;-63
2022/10/10 05:55:29;;;;;;;6.70;5.50;;;7.30;99.90;;;-141.84;75.12;18547.88;5110771;28;20207;-63
2022/10/10 05:57:59;;;;;;;6.77;4.90;;;7.40;99.90;;;-141.84;74.36;18529.59;5111026;28;20297;-63
2022/10/10 06:00:27;;;;;;;8.77;4.97;;;7.50;99.90;;;-141.84;74.47;18549.91;5110125;28;20233;-65
2022/10/10 06:02:57;;;;;;;5.07;4.57;;;7.50;99.90;;;-141.84;73.59;18562.09;5090557;28;20705;-63
2022/10/10 06:05:25;;;;;;;6.23;4.50;;;7.60;99.90;;;-141.84;73.60;18572.25;5090076;28;20276;-63
2022/10/10 06:07:53;;;;;;;6.43;4.30;;;7.70;99.90;;;-141.84;73.73;18570.22;5090777;28;20607;-62
2022/10/10 06:10:43;;;;;;;8.47;4.27;;;7.70;99.90;;;-141.84;73.71;18582.44;5091334;28;20188;-63
2022/10/10 06:13:16;;;;;;;6.63;4.80;;;7.80;99.90;;;-141.84;73.41;18600.72;5090529;28;20224;-63
2022/10/10 06:15:52;;;;;;;5.00;4.47;;;7.80;99.90;;;-141.84;72.90;18594.63;5090721;28;20323;-63
2022/10/10 06:18:20;;;;;;;7.50;4.93;;;7.90;99.90;;;-141.84;72.57;18596.66;5090442;28;20301;-64
2022/10/10 06:20:48;;;;;;;6.10;4.93;;;8.00;99.90;;;-141.84;72.37;18627.13;5090791;28;20220;-63
2022/10/10 06:23:17;;;;;;;7.40;4.87;;;8.10;99.90;;;-141.84;72.13;18594.63;5090489;28;20227;-62
2022/10/10 06:25:45;;;;;;;5.97;4.90;;;8.20;99.90;;;-141.84;71.64;18633.22;5090967;28;20238;-64
2022/10/10 06:28:14;;;;;;;7.47;4.17;;;8.20;99.90;;;-141.84;71.28;18665.72;5090301;28;20227;-63
2022/10/10 06:30:44;;;;;;;6.13;4.03;;;8.30;99.90;;;-141.84;71.60;18663.69;5101827;28;20356;-63
2022/10/10 06:33:13;;;;;;;5.13;3.83;;;8.30;99.90;;;-141.84;72.01;18629.16;5094942;28;20223;-63
2022/10/10 06:35:43;;;;;;;6.77;5.07;;;8.40;99.90;;;-141.84;71.94;18637.28;5097165;28;20223;-63
2022/10/10 06:38:13;;;;;;;8.10;4.67;;;8.40;99.90;;;-141.84;70.77;18692.13;5096133;28;20231;-62
2022/10/10 06:40:42;;;;;;;7.10;4.60;;;8.40;99.90;;;-141.84;71.04;18679.94;5097764;28;20410;-63
2022/10/10 06:43:15;;;;;;;7.53;5.07;;;8.40;99.90;;;-141.84;71.65;18647.44;5096939;28;20223;-65
2022/10/10 06:45:45;;;;;;;8.40;4.60;;;8.40;99.90;;;-141.84;71.48;18627.13;5097246;28;20254;-62
2022/10/10 06:48:15;;;;;;;5.47;4.30;;;8.40;99.90;;;-141.84;70.87;18679.94;5097283;28;20388;-63
2022/10/10 06:50:43;;;;;;;8.30;4.90;;;8.50;99.90;;;-141.84;70.28;18730.75;5096947;28;20215;-64
2022/10/10 06:53:11;;;;;;;6.33;4.63;;;8.50;99.90;;;-141.84;69.74;18744.97;5097232;28;20220;-63
2022/10/10 06:55:46;;;;;;;7.73;4.80;;;8.50;99.90;;;-141.84;70.11;18704.31;5097691;28;20204;-63
2022/10/10 06:58:15;;;;;;;8.97;5.13;;;8.60;99.90;;;-141.84;70.42;18722.63;5096597;28;20219;-63
2022/10/10 07:00:51;;;;;;;8.27;4.53;;;8.60;99.90;;;-141.84;70.83;18700.25;5096218;28;20220;-64
2022/10/10 07:03:21;;;;;;;7.17;4.97;;;8.50;99.90;;;-141.84;70.53;18679.94;5096843;28;20587;-64
2022/10/10 07:05:50;;;;;;;7.83;4.70;;;8.50;99.90;;;-141.84;70.70;18684.00;5097057;28;20223;-63
2022/10/10 07:08:19;;;;;;;5.63;4.80;;;8.50;99.90;;;-141.84;70.94;18673.84;5097008;28;20219;-62
2022/10/10 07:10:47;;;;;;;8.03;5.33;;;8.50;99.90;;;-141.84;70.92;18655.56;5097478;28;20246;-63
2022/10/10 07:13:17;;;;;;;7.27;4.80;;;8.50;99.90;;;-141.84;71.01;18681.97;5107459;28;20683;-62
2022/10/10 07:15:46;;;;;;;9.73;4.80;;;8.60;99.90;;;-141.84;70.68;18720.59;5116855;27;20229;-61
2022/10/10 07:18:14;;;;;;;8.43;5.07;;;8.60;99.90;;;-141.84;70.77;18692.13;5117100;27;20226;-62
2022/10/10 07:20:42;;;;;;;10.80;5.63;;;8.60;99.90;;;-141.84;71.21;18694.16;5116872;27;20721;-62
2022/10/10 07:23:10;;;;;;;9.83;5.77;;;8.60;99.90;;;-141.84;71.27;18692.13;5116680;27;20223;-62
2022/10/10 07:25:39;;;;;;;13.93;9.30;;;8.60;99.90;;;-141.84;71.45;18704.31;5117126;28;20219;-62
2022/10/10 07:28:08;;;;;;;11.77;7.20;;;8.60;99.90;;;-141.84;71.41;18677.91;5116533;27;20226;-63
2022/10/10 07:30:42;;;;;;;7.53;5.73;;;8.60;99.90;;;-141.84;71.46;18659.63;5112256;27;20212;-68
2022/10/10 07:33:11;;;;;;;7.07;5.00;;;8.60;99.90;;;-141.84;71.93;18677.91;5096233;28;20250;-67
2022/10/10 07:35:39;;;;;;;6.10;4.90;;;8.60;99.90;;;-141.84;71.51;18714.50;5095830;28;20275;-68
2022/10/10 07:38:10;;;;;;;8.13;5.07;;;8.70;99.90;;;-141.84;71.92;18688.06;5095278;28;20216;-63
2022/10/10 07:40:40;;;;;;;9.43;4.60;;;8.70;99.90;;;-141.84;70.53;18742.94;5096603;28;20184;-65
2022/10/10 07:43:08;;;;;;;8.53;4.73;;;8.90;99.90;;;-141.84;69.43;18793.72;5095831;28;20726;-63
2022/10/10 07:45:36;;;;;;;7.33;4.40;;;9.00;99.90;;;-141.84;68.71;18824.22;5091872;28;20227;-63
2022/10/10 07:48:05;;;;;;;9.80;5.30;;;9.10;99.90;;;-141.84;68.72;18834.38;5093308;28;20223;-62
2022/10/10 07:50:34;;;;;;;6.93;4.50;;;9.30;99.90;;;-141.84;68.00;18895.31;5093148;28;20238;-62
2022/10/10 07:53:02;;;;;;;7.50;4.73;;;9.50;99.90;;;-141.84;66.61;18984.72;5093021;28;20200;-62
2022/10/10 07:55:30;;;;;;;5.33;4.10;;;9.70;99.90;;;-141.84;66.65;18976.59;5093049;28;20612;-63
2022/10/10 07:57:58;;;;;;;5.83;4.13;;;10.00;99.90;;;-141.84;65.25;19104.59;5092325;28;20633;-64
2022/10/10 08:00:27;;;;;;;8.37;4.43;;;10.30;99.90;;;-141.84;64.11;19159.47;5093104;28;20314;-65
2022/10/10 08:02:55;;;;;;;5.27;4.10;;;10.60;99.90;;;-141.84;62.66;19315.94;5093124;28;20276;-65
2022/10/10 08:05:24;;;;;;;8.43;3.90;;;10.70;99.90;;;-141.84;62.23;19429.75;5093557;28;20208;-65
2022/10/10 08:07:52;;;;;;;6.83;4.60;;;10.90;99.90;;;-141.84;61.95;19448.03;5099746;28;20207;-64
2022/10/10 08:10:21;;;;;;;8.53;4.57;;;11.10;99.90;;;-141.84;61.18;19506.97;5113025;28;20651;-64
2022/10/10 08:12:49;;;;;;;7.80;4.27;;;11.30;99.90;;;-141.84;61.13;19549.63;5113889;28;20203;-64
2022/10/10 08:15:17;;;;;;;7.70;4.07;;;11.40;99.90;;;-141.84;60.58;19604.50;5110659;28;20223;-61
2022/10/10 08:17:45;;;;;;;6.43;4.30;;;11.50;99.90;;;-141.84;60.02;19661.41;5112156;28;20227;-63
2022/10/10 08:20:13;;;;;;;7.17;3.87;;;11.70;99.90;;;-141.84;59.29;19712.22;5112407;28;20239;-64
2022/10/10 08:22:43;;;;;;;11.13;3.97;;;11.90;99.90;;;-141.84;60.06;19702.06;5112683;27;20219;-65
2022/10/10 08:25:11;;;;;;;5.37;3.73;;;12.00;99.90;;;-141.84;59.38;19754.91;5109826;28;20320;-66
2022/10/10 08:27:39;;;;;;;4.37;3.50;;;12.10;99.90;;;-141.84;58.44;19809.78;5110666;28;20198;-64
2022/10/10 08:30:08;;;;;;;6.03;3.30;;;12.30;99.90;;;-141.84;58.02;19854.50;5112361;28;20203;-65
2022/10/10 08:32:36;;;;;;;4.73;3.27;;;12.40;99.90;;;-141.84;57.57;19911.41;5112130;28;20231;-66
2022/10/10 08:35:05;;;;;;;6.53;3.70;;;12.60;99.90;;;-141.84;57.64;19939.84;5111981;28;20629;-67
2022/10/10 08:37:33;;;;;;;8.03;4.00;;;12.60;99.90;;;-141.84;57.47;19960.16;5112347;27;20230;-63
2022/10/10 08:40:08;;;;;;;5.50;3.60;;;12.70;99.90;;;-141.84;57.20;19996.75;5112403;28;20230;-63
2022/10/10 08:42:42;;;;;;;5.60;3.93;;;12.80;99.90;;;-141.84;56.75;20027.25;5112440;28;20192;-63
2022/10/10 08:45:24;;;;;;;8.20;3.33;;;12.90;99.90;;;-141.84;57.12;20055.69;5113179;28;20638;-63
2022/10/10 08:47:59;;;;;;;6.00;3.93;;;13.10;99.90;;;-141.84;56.01;20057.72;5112344;28;20576;-62
2022/10/10 08:50:33;;;;;;;5.03;3.40;;;13.20;99.90;;;-141.84;55.84;20053.66;5112463;28;20227;-62
2022/10/10 08:53:08;;;;;;;4.87;3.53;;;13.30;99.90;;;-141.84;56.00;20088.22;5112270;27;20246;-62
2022/10/10 08:55:42;;;;;;;6.57;3.47;;;13.40;99.90;;;-141.84;55.82;20122.78;5110599;28;20238;-62
2022/10/10 08:58:22;;;;;;;4.97;3.50;;;13.40;99.90;;;-141.84;55.66;20132.94;5112225;28;20223;-61
2022/10/10 09:01:04;;;;;;;6.33;3.80;;;13.50;99.90;;;-141.84;55.50;20137.00;5112507;28;20331;-61
2022/10/10 09:03:41;;;;;;;5.78;3.22;;;13.60;99.90;;;-141.84;55.89;20122.78;5112476;27;20210;-62
2022/10/10 09:06:30;;;;;;;4.25;3.58;;;13.60;99.90;;;-141.84;55.19;20185.78;5112838;28;20180;-63
2022/10/10 09:09:11;;;;;;;7.82;3.90;;;13.80;99.90;;;-141.84;55.10;20206.09;5112278;28;20661;-62
2022/10/10 09:11:58;;;;;;;4.43;3.25;;;13.90;99.90;;;-141.84;55.57;20210.16;5112227;28;20234;-62
2022/10/10 09:14:39;;;;;;;6.03;3.77;;;13.80;99.90;;;-141.84;55.66;20193.91;5111664;28;20268;-65
2022/10/10 09:17:25;;;;;;;6.13;3.90;;;13.90;99.90;;;-141.84;56.33;20147.16;5112271;28;20737;-65
2022/10/10 09:20:09;;;;;;;6.50;3.72;;;13.90;99.90;;;-141.84;55.63;20216.25;5112214;28;20223;-63
2022/10/10 09:22:53;;;;;;;7.07;3.90;;;13.90;99.90;;;-141.84;55.56;20226.44;5112032;27;20227;-61
2022/10/10 09:25:29;;;;;;;6.80;3.60;;;14.00;99.90;;;-141.84;55.07;20222.38;5111596;28;20249;-62
2022/10/10 09:28:07;;;;;;;6.78;3.90;;;14.10;99.90;;;-141.84;55.31;20228.47;5111658;28;20237;-61
2022/10/10 09:30:43;;;;;;;5.25;3.92;;;14.10;99.90;;;-141.84;54.80;20260.97;5111876;28;20188;-63
2022/10/10 09:33:27;;;;;;;5.25;3.28;;;14.30;99.90;;;-141.84;54.79;20317.91;5112127;28;20199;-62
2022/10/10 09:35:59;;;;;;;5.93;3.53;;;14.30;99.90;;;-141.84;54.38;20311.78;5110573;27;20223;-62
2022/10/10 09:38:42;;;;;;;5.22;3.28;;;14.40;99.90;;;-141.84;54.08;20340.25;5111745;27;20227;-60
2022/10/10 09:41:20;;;;;;;4.78;3.78;;;14.50;99.90;;;-141.84;54.28;20344.31;5111660;27;20231;-62
2022/10/10 09:43:56;;;;;;;5.63;3.75;;;14.50;99.90;;;-141.84;53.72;20370.75;5111475;27;20223;-62
2022/10/10 09:46:24;;;;;;;7.68;3.50;;;14.70;99.90;;;-141.84;53.84;20368.72;5111482;27;20223;-62
2022/10/10 09:48:54;;;;;;;5.88;3.38;;;14.70;99.90;;;-141.84;53.90;20423.59;5111822;27;20230;-63
2022/10/10 09:51:22;;;;;;;6.32;3.30;;;14.80;99.90;;;-141.84;52.93;20423.59;5111613;28;20621;-64
2022/10/10 09:53:50;;;;;;;6.20;4.00;;;15.00;99.90;;;-141.84;53.09;20413.44;5111263;27;20231;-62
2022/10/10 09:56:22;;;;;;;5.82;3.55;;;15.00;99.90;;;-141.84;53.18;20427.66;5111189;27;20276;-62
2022/10/10 09:58:55;;;;;;;5.45;3.53;;;15.00;99.90;;;-141.84;53.46;20376.84;5110167;27;20250;-64
2022/10/10 10:01:25;;;;;;;5.28;3.53;;;14.90;99.90;;;-141.84;53.47;20395.13;5101948;28;20223;-61
2022/10/10 10:04:14;;;;;;;4.93;3.67;;;14.90;99.90;;;-141.84;53.70;20411.41;5091051;28;20227;-62
2022/10/10 10:07:16;;;;;;;5.55;3.40;;;14.90;99.90;;;-141.84;53.51;20466.28;5090433;28;20640;-62
2022/10/10 10:09:48;;;;;;;6.50;3.40;;;15.10;99.90;;;-141.84;53.38;20447.97;5090767;28;20185;-64
2022/10/10 10:12:23;;;;;;;5.65;4.07;;;15.10;99.90;;;-141.84;53.52;20429.69;5091110;28;20665;-62
2022/10/10 10:15:01;;;;;;;5.40;3.67;;;15.10;99.90;;;-141.84;53.43;20486.59;5090452;28;20246;-62
2022/10/10 10:17:30;;;;;;;8.90;3.60;;;15.20;99.90;;;-141.84;53.22;20427.66;5090649;28;20272;-60
2022/10/10 10:19:58;;;;;;;5.03;3.58;;;15.20;99.90;;;-141.84;53.04;20506.94;5090570;28;20228;-63
2022/10/10 10:22:33;;;;;;;8.13;4.05;;;15.40;99.90;;;-141.84;52.92;20504.91;5090703;28;20231;-62
2022/10/10 10:25:34;;;;;;;8.32;3.42;;;15.50;99.90;;;-141.84;52.65;20494.75;5090376;28;20223;-64
2022/10/10 10:28:21;;;;;;;5.78;3.88;;;15.50;99.90;;;-141.84;53.23;20488.63;5090838;28;20224;-62
2022/10/10 10:30:54;;;;;;;5.85;3.40;;;15.50;99.90;;;-141.84;53.08;20508.97;5108079;28;20199;-62